createdAt,value
2023-05-29T00:01:41.995Z,7.78
2023-05-29T00:04:13.876Z,7.69
2023-05-29T00:06:45.547Z,7.69
2023-05-29T00:09:16.339Z,7.71
2023-05-29T00:11:51.765Z,7.65
2023-05-29T00:14:25.031Z,7.64
2023-05-29T00:16:57.904Z,7.63
2023-05-29T00:19:29.882Z,7.66
2023-05-29T00:22:01.407Z,7.68
2023-05-29T00:24:32.984Z,7.69
2023-05-29T00:27:03.248Z,7.67
2023-05-29T00:29:34.825Z,7.61
2023-05-29T00:32:08.056Z,7.60
2023-05-29T00:34:39.828Z,7.57
2023-05-29T00:37:09.981Z,7.56
2023-05-29T00:39:41.633Z,7.53
2023-05-29T00:42:13.225Z,7.55
2023-05-29T00:44:43.329Z,7.55
2023-05-29T00:47:15.795Z,7.48
2023-05-29T00:49:47.941Z,7.45
2023-05-29T00:52:19.985Z,7.43
2023-05-29T00:54:51.667Z,7.41
2023-05-29T00:57:22.555Z,7.37
2023-05-29T00:59:54.167Z,7.30
2023-05-29T01:02:25.020Z,7.30
2023-05-29T01:04:56.749Z,7.23
2023-05-29T01:07:28.510Z,7.23
2023-05-29T01:10:00.068Z,7.22
2023-05-29T01:12:42.663Z,7.20
2023-05-29T01:15:28.200Z,7.18
2023-05-29T01:18:13.034Z,7.16
2023-05-29T01:20:49.720Z,7.14
2023-05-29T01:23:38.620Z,7.12
2023-05-29T01:26:27.753Z,7.12
2023-05-29T01:29:02.654Z,7.13
2023-05-29T01:31:35.192Z,7.15
2023-05-29T01:34:06.825Z,7.16
2023-05-29T01:36:37.311Z,7.15
2023-05-29T01:39:10.204Z,7.08
2023-05-29T01:41:42.787Z,7.06
2023-05-29T01:44:15.229Z,7.02
2023-05-29T01:46:47.542Z,6.97
2023-05-29T01:49:20.217Z,6.94
2023-05-29T01:51:51.834Z,6.90
2023-05-29T01:54:23.788Z,6.85
2023-05-29T01:56:56.287Z,6.77
2023-05-29T01:59:28.543Z,6.76
2023-05-29T02:02:00.044Z,6.75
2023-05-29T02:04:31.605Z,6.74
2023-05-29T02:07:01.720Z,6.73
2023-05-29T02:09:33.271Z,6.66
2023-05-29T02:12:05.043Z,6.67
2023-05-29T02:14:37.941Z,6.66
2023-05-29T02:17:10.335Z,6.65
2023-05-29T02:19:41.993Z,6.60
2023-05-29T02:22:14.261Z,6.56
2023-05-29T02:24:45.793Z,6.54
2023-05-29T02:27:15.970Z,6.51
2023-05-29T02:29:47.575Z,6.42
2023-05-29T02:32:19.442Z,6.41
2023-05-29T02:34:50.596Z,6.40
2023-05-29T02:37:26.362Z,6.36
2023-05-29T02:39:57.906Z,6.35
2023-05-29T02:42:28.012Z,6.35
2023-05-29T02:44:59.546Z,6.31
2023-05-29T02:47:31.305Z,6.34
2023-05-29T02:50:03.507Z,6.34
2023-05-29T02:52:37.709Z,6.33
2023-05-29T02:55:11.368Z,6.30
2023-05-29T02:57:42.933Z,6.30
2023-05-29T03:00:14.998Z,6.32
2023-05-29T03:02:46.991Z,6.32
2023-05-29T03:05:18.744Z,6.35
2023-05-29T03:07:48.872Z,6.39
2023-05-29T03:10:20.515Z,6.40
2023-05-29T03:12:50.667Z,6.48
2023-05-29T03:15:22.301Z,6.53
2023-05-29T03:17:54.094Z,6.61
2023-05-29T03:20:30.184Z,6.71
2023-05-29T03:23:02.969Z,6.81
2023-05-29T03:25:34.891Z,6.95
2023-05-29T03:28:04.980Z,7.16
2023-05-29T03:30:37.094Z,7.30
2023-05-29T03:33:08.771Z,7.52
2023-05-29T03:36:00.246Z,7.78
2023-05-29T03:38:32.107Z,8.08
2023-05-29T03:41:04.306Z,8.43
2023-05-29T03:43:34.453Z,8.80
2023-05-29T03:46:06.358Z,9.04
2023-05-29T03:48:39.344Z,9.40
2023-05-29T03:51:09.439Z,9.66
2023-05-29T03:53:42.028Z,9.77
2023-05-29T03:56:13.872Z,9.97
2023-05-29T03:58:45.672Z,10.23
2023-05-29T04:01:18.082Z,10.51
2023-05-29T04:03:48.214Z,10.79
2023-05-29T04:06:19.932Z,10.98
2023-05-29T04:08:50.068Z,11.25
2023-05-29T04:11:23.323Z,11.40
2023-05-29T04:13:54.926Z,11.58
2023-05-29T04:16:26.576Z,11.82
2023-05-29T04:18:58.260Z,12.08
2023-05-29T04:21:33.709Z,12.36
2023-05-29T04:24:06.601Z,12.59
2023-05-29T04:26:42.131Z,12.83
2023-05-29T04:29:15.067Z,13.05
2023-05-29T04:31:48.233Z,13.30
2023-05-29T04:34:21.214Z,13.52
2023-05-29T04:36:52.866Z,13.75
2023-05-29T04:39:24.393Z,14.04
2023-05-29T04:41:59.685Z,14.29
2023-05-29T04:44:34.084Z,14.51
2023-05-29T04:47:07.479Z,14.80
2023-05-29T04:49:40.118Z,15.14
2023-05-29T04:52:13.037Z,15.44
2023-05-29T04:54:44.994Z,15.78
2023-05-29T04:57:18.160Z,16.14
2023-05-29T04:59:49.692Z,16.52
2023-05-29T05:02:21.270Z,16.96
2023-05-29T05:04:52.888Z,17.38
2023-05-29T05:07:24.542Z,17.69
2023-05-29T05:09:56.688Z,17.93
2023-05-29T05:12:31.156Z,18.20
2023-05-29T05:15:02.893Z,18.50
2023-05-29T05:17:35.186Z,18.88
2023-05-29T05:20:09.661Z,19.32
2023-05-29T05:22:41.892Z,19.73
2023-05-29T05:25:13.900Z,20.17
2023-05-29T05:27:46.042Z,20.59
2023-05-29T05:30:18.489Z,20.96
2023-05-29T05:32:50.297Z,21.26
2023-05-29T05:35:22.495Z,21.58
2023-05-29T05:37:54.208Z,21.94
2023-05-29T05:40:27.701Z,22.34
2023-05-29T05:43:04.450Z,22.73
2023-05-29T05:45:56.133Z,23.16
2023-05-29T05:48:28.142Z,23.56
2023-05-29T05:51:00.036Z,23.89
2023-05-29T05:53:31.793Z,24.19
2023-05-29T05:56:03.437Z,24.54
2023-05-29T05:58:35.192Z,24.86
2023-05-29T06:01:08.625Z,25.09
2023-05-29T06:03:40.603Z,25.34
2023-05-29T06:06:14.067Z,25.64
2023-05-29T06:08:48.746Z,26.01
2023-05-29T06:11:20.896Z,26.06
2023-05-29T06:13:53.625Z,25.92
2023-05-29T06:16:28.902Z,25.92
2023-05-29T06:19:00.742Z,25.86
2023-05-29T06:21:33.809Z,25.64
2023-05-29T06:24:07.882Z,25.50
2023-05-29T06:26:39.620Z,25.14
2023-05-29T06:29:11.932Z,24.83
2023-05-29T06:31:44.865Z,24.54
2023-05-29T06:34:17.492Z,24.41
2023-05-29T06:36:49.109Z,24.41
2023-05-29T06:39:21.155Z,24.34
2023-05-29T06:41:52.778Z,24.25
2023-05-29T06:44:24.268Z,24.39
2023-05-29T06:46:55.887Z,24.51
2023-05-29T06:49:27.554Z,24.51
2023-05-29T06:51:59.051Z,24.21
2023-05-29T06:54:50.566Z,24.35
2023-05-29T06:57:22.230Z,24.48
2023-05-29T06:59:53.966Z,24.37
2023-05-29T07:02:25.646Z,24.22
2023-05-29T07:04:59.851Z,24.13
2023-05-29T07:07:31.840Z,24.09
2023-05-29T07:10:03.540Z,24.08
2023-05-29T07:12:35.334Z,23.99
2023-05-29T07:15:09.999Z,23.99
2023-05-29T07:17:45.705Z,24.01
2023-05-29T07:20:24.434Z,23.92
2023-05-29T07:22:56.085Z,23.50
2023-05-29T07:25:27.831Z,23.11
2023-05-29T07:28:10.678Z,22.83
2023-05-29T07:30:52.313Z,22.82
2023-05-29T07:33:23.943Z,22.76
2023-05-29T07:35:59.913Z,22.38
2023-05-29T07:38:33.021Z,22.05
2023-05-29T07:41:04.847Z,21.77
2023-05-29T07:43:38.542Z,21.67
2023-05-29T07:46:11.968Z,21.51
2023-05-29T07:48:46.936Z,21.44
2023-05-29T07:51:18.717Z,21.31
2023-05-29T07:53:51.645Z,21.21
2023-05-29T07:56:23.540Z,21.25
2023-05-29T07:58:55.960Z,21.15
2023-05-29T08:01:28.223Z,21.07
2023-05-29T08:04:00.317Z,20.97
2023-05-29T08:06:35.775Z,20.90
2023-05-29T08:09:07.801Z,20.95
2023-05-29T08:11:39.577Z,20.97
2023-05-29T08:14:11.124Z,20.93
2023-05-29T08:16:44.307Z,20.85
2023-05-29T08:19:16.406Z,20.89
2023-05-29T08:21:48.116Z,20.97
2023-05-29T08:24:21.133Z,20.90
2023-05-29T08:26:53.009Z,20.87
2023-05-29T08:29:24.718Z,20.82
2023-05-29T08:31:56.394Z,20.81
2023-05-29T08:34:28.094Z,20.85
2023-05-29T08:36:59.619Z,20.78
2023-05-29T08:39:31.245Z,20.74
2023-05-29T08:42:09.520Z,20.93
2023-05-29T08:44:42.887Z,21.10
2023-05-29T08:47:19.278Z,21.18
2023-05-29T08:49:54.952Z,21.28
2023-05-29T08:52:27.806Z,21.39
2023-05-29T08:55:01.606Z,21.51
2023-05-29T08:57:34.635Z,21.65
2023-05-29T09:00:10.827Z,21.68
2023-05-29T09:02:42.635Z,21.70
2023-05-29T09:05:15.891Z,21.70
2023-05-29T09:07:48.094Z,21.68
2023-05-29T09:10:19.850Z,21.74
2023-05-29T09:12:52.407Z,21.70
2023-05-29T09:15:25.857Z,21.49
2023-05-29T09:17:59.321Z,21.40
2023-05-29T09:20:31.370Z,21.36
2023-05-29T09:23:05.426Z,21.19
2023-05-29T09:25:41.386Z,21.21
2023-05-29T09:28:14.177Z,21.26
2023-05-29T09:30:48.531Z,21.36
2023-05-29T09:33:22.107Z,21.40
2023-05-29T09:35:54.700Z,21.47
2023-05-29T09:38:38.427Z,21.68
2023-05-29T09:41:24.799Z,21.96
2023-05-29T09:43:57.228Z,22.05
2023-05-29T09:46:29.717Z,22.07
2023-05-29T09:49:05.050Z,21.93
2023-05-29T09:51:37.728Z,21.88
2023-05-29T09:54:19.596Z,21.91
2023-05-29T09:56:52.412Z,21.85
2023-05-29T09:59:27.230Z,21.88
2023-05-29T10:02:05.154Z,21.91
2023-05-29T10:04:38.127Z,22.06
2023-05-29T10:07:14.805Z,22.17
2023-05-29T10:09:51.709Z,22.20
2023-05-29T10:12:24.651Z,22.18
2023-05-29T10:14:59.184Z,22.33
2023-05-29T10:17:36.862Z,22.43
2023-05-29T10:20:12.031Z,22.58
2023-05-29T10:22:48.958Z,22.77
2023-05-29T10:25:22.604Z,22.98
2023-05-29T10:27:55.304Z,23.17
2023-05-29T10:30:36.764Z,23.31
2023-05-29T10:33:23.973Z,23.36
2023-05-29T10:36:03.365Z,23.28
2023-05-29T10:38:35.897Z,23.13
2023-05-29T10:41:40.720Z,22.87
2023-05-29T10:44:39.760Z,22.68
2023-05-29T10:47:13.657Z,22.78
2023-05-29T10:49:54.591Z,22.96
2023-05-29T10:52:26.372Z,23.03
2023-05-29T10:54:59.077Z,23.12
2023-05-29T10:57:37.065Z,23.10
2023-05-29T11:00:24.440Z,23.25
2023-05-29T11:02:56.412Z,23.42
2023-05-29T11:05:28.865Z,23.53
2023-05-29T11:08:04.430Z,23.64
2023-05-29T11:10:59.759Z,23.61
2023-05-29T11:13:38.973Z,23.56
2023-05-29T11:16:38.048Z,23.48
2023-05-29T11:19:12.087Z,23.32
2023-05-29T11:21:58.909Z,23.21
2023-05-29T11:24:31.428Z,23.30
2023-05-29T11:27:07.545Z,23.35
2023-05-29T11:29:40.201Z,23.42
2023-05-29T11:32:18.698Z,23.54
2023-05-29T11:34:54.257Z,23.64
2023-05-29T11:37:27.173Z,23.73
2023-05-29T11:39:59.113Z,23.71
2023-05-29T11:42:31.020Z,23.54
2023-05-29T11:45:18.052Z,23.41
2023-05-29T11:48:00.648Z,23.36
2023-05-29T11:50:38.488Z,23.38
2023-05-29T11:53:11.356Z,23.34
2023-05-29T11:55:47.319Z,23.23
2023-05-29T11:58:19.525Z,23.31
2023-05-29T12:00:53.718Z,23.45
2023-05-29T12:03:26.281Z,23.57
2023-05-29T12:05:58.755Z,23.70
2023-05-29T12:08:31.730Z,23.86
2023-05-29T12:11:04.319Z,23.89
2023-05-29T12:13:43.514Z,23.86
2023-05-29T12:16:16.712Z,23.75
2023-05-29T12:18:49.302Z,23.75
2023-05-29T12:21:22.195Z,23.77
2023-05-29T12:24:03.176Z,23.78
2023-05-29T12:26:48.418Z,23.68
2023-05-29T12:29:20.268Z,23.67
2023-05-29T12:32:02.188Z,23.61
2023-05-29T12:34:40.624Z,23.44
2023-05-29T12:37:15.192Z,23.35
2023-05-29T12:39:47.100Z,23.34
2023-05-29T12:42:20.336Z,23.32
2023-05-29T12:44:52.184Z,23.39
2023-05-29T12:47:28.262Z,23.53
2023-05-29T12:50:00.029Z,23.59
2023-05-29T12:52:31.964Z,23.65
2023-05-29T12:55:04.043Z,23.57
2023-05-29T12:57:36.251Z,23.51
2023-05-29T13:00:12.890Z,23.57
2023-05-29T13:02:44.787Z,23.59
2023-05-29T13:05:19.998Z,23.41
2023-05-29T13:07:52.670Z,23.28
2023-05-29T13:10:26.722Z,23.31
2023-05-29T13:13:00.409Z,23.44
2023-05-29T13:15:34.139Z,23.57
2023-05-29T13:18:07.044Z,23.60
2023-05-29T13:20:41.058Z,23.49
2023-05-29T13:23:13.257Z,23.50
2023-05-29T13:25:45.336Z,23.61
2023-05-29T13:28:17.496Z,23.70
2023-05-29T13:30:50.256Z,23.80
2023-05-29T13:33:22.415Z,23.92
2023-05-29T13:35:55.862Z,23.87
2023-05-29T13:38:29.335Z,23.65
2023-05-29T13:41:02.904Z,23.59
2023-05-29T13:43:43.693Z,23.56
2023-05-29T13:46:17.034Z,23.56
2023-05-29T13:48:48.803Z,23.63
2023-05-29T13:51:20.504Z,23.75
2023-05-29T13:53:52.226Z,23.82
2023-05-29T13:56:24.049Z,23.89
2023-05-29T13:58:55.941Z,23.99
2023-05-29T14:01:28.151Z,24.07
2023-05-29T14:04:00.131Z,24.08
2023-05-29T14:06:33.414Z,24.03
2023-05-29T14:09:05.901Z,23.98
2023-05-29T14:11:38.205Z,23.98
2023-05-29T14:14:11.107Z,23.94
2023-05-29T14:16:42.974Z,23.84
2023-05-29T14:19:15.007Z,23.73
2023-05-29T14:21:47.206Z,23.78
2023-05-29T14:24:19.276Z,23.87
2023-05-29T14:26:51.947Z,23.91
2023-05-29T14:29:23.623Z,23.99
2023-05-29T14:31:55.434Z,24.00
2023-05-29T14:34:27.694Z,24.02
2023-05-29T14:37:01.656Z,24.07
2023-05-29T14:39:34.043Z,24.01
2023-05-29T14:42:07.859Z,23.86
2023-05-29T14:44:43.183Z,23.70
2023-05-29T14:47:15.820Z,23.68
2023-05-29T14:49:48.159Z,23.80
2023-05-29T14:52:20.726Z,23.87
2023-05-29T14:54:56.041Z,23.94
2023-05-29T14:57:28.432Z,24.03
2023-05-29T15:00:01.114Z,24.08
2023-05-29T15:02:33.879Z,24.15
2023-05-29T15:05:11.307Z,24.24
2023-05-29T15:07:50.788Z,24.30
2023-05-29T15:10:27.949Z,24.28
2023-05-29T15:13:09.653Z,24.28
2023-05-29T15:15:48.585Z,24.31
2023-05-29T15:18:31.449Z,24.28
2023-05-29T15:21:04.541Z,24.29
2023-05-29T15:23:45.110Z,24.26
2023-05-29T15:26:29.167Z,24.25
2023-05-29T15:29:01.452Z,24.23
2023-05-29T15:31:35.500Z,24.14
2023-05-29T15:34:12.535Z,24.17
2023-05-29T15:36:49.577Z,24.16
2023-05-29T15:39:22.223Z,24.12
2023-05-29T15:41:55.385Z,24.00
2023-05-29T15:44:31.766Z,23.89
2023-05-29T15:47:07.621Z,23.81
2023-05-29T15:49:46.022Z,23.69
2023-05-29T15:52:22.541Z,23.64
2023-05-29T15:55:09.064Z,23.58
2023-05-29T15:57:42.688Z,23.45
2023-05-29T16:00:17.043Z,23.41
2023-05-29T16:02:54.364Z,23.41
2023-05-29T16:05:38.163Z,23.43
2023-05-29T16:08:13.505Z,23.44
2023-05-29T16:10:48.611Z,23.42
2023-05-29T16:13:21.702Z,23.37
2023-05-29T16:15:53.649Z,23.32
2023-05-29T16:18:31.861Z,23.26
2023-05-29T16:21:03.830Z,23.21
2023-05-29T16:23:35.990Z,23.16
2023-05-29T16:26:08.375Z,23.10
2023-05-29T16:28:42.578Z,23.03
2023-05-29T16:31:14.807Z,22.92
2023-05-29T16:33:46.851Z,22.79
2023-05-29T16:36:20.050Z,22.70
2023-05-29T16:38:52.284Z,22.58
2023-05-29T16:41:24.208Z,22.43
2023-05-29T16:43:56.397Z,22.30
2023-05-29T16:46:28.644Z,22.20
2023-05-29T16:49:00.528Z,22.12
2023-05-29T16:51:32.310Z,22.04
2023-05-29T16:54:04.251Z,22.00
2023-05-29T16:56:36.300Z,21.92
2023-05-29T16:59:08.294Z,21.85
2023-05-29T17:01:40.480Z,21.80
2023-05-29T17:04:12.567Z,21.73
2023-05-29T17:06:46.709Z,21.63
2023-05-29T17:09:19.159Z,21.53
2023-05-29T17:11:53.491Z,21.45
2023-05-29T17:14:27.652Z,21.38
2023-05-29T17:17:04.016Z,21.32
2023-05-29T17:19:39.821Z,21.25
2023-05-29T17:22:15.835Z,21.19
2023-05-29T17:24:48.226Z,21.10
2023-05-29T17:27:23.225Z,21.03
2023-05-29T17:29:56.071Z,20.97
2023-05-29T17:32:28.062Z,20.92
2023-05-29T17:35:03.960Z,20.84
2023-05-29T17:37:39.189Z,20.77
2023-05-29T17:40:18.694Z,20.71
2023-05-29T17:42:54.753Z,20.64
2023-05-29T17:45:32.809Z,20.56
2023-05-29T17:48:05.442Z,20.49
2023-05-29T17:50:40.142Z,20.43
2023-05-29T17:53:15.247Z,20.35
2023-05-29T17:55:48.231Z,20.26
2023-05-29T17:58:32.021Z,20.14
2023-05-29T18:01:04.864Z,20.00
2023-05-29T18:03:37.842Z,19.87
2023-05-29T18:06:10.574Z,19.71
2023-05-29T18:08:46.126Z,19.53
2023-05-29T18:11:20.988Z,19.37
2023-05-29T18:14:09.090Z,19.24
2023-05-29T18:16:48.310Z,19.10
2023-05-29T18:19:22.023Z,18.96
2023-05-29T18:21:54.415Z,18.82
2023-05-29T18:24:27.567Z,18.69
2023-05-29T18:26:59.519Z,18.56
2023-05-29T18:29:33.497Z,18.44
2023-05-29T18:32:07.276Z,18.26
2023-05-29T18:34:39.988Z,18.07
2023-05-29T18:37:13.311Z,17.90
2023-05-29T18:39:52.516Z,17.77
2023-05-29T18:42:27.691Z,17.66
2023-05-29T18:45:16.056Z,17.55
2023-05-29T18:47:54.312Z,17.45
2023-05-29T18:50:31.081Z,17.37
2023-05-29T18:53:13.804Z,17.27
2023-05-29T18:55:49.587Z,17.18
2023-05-29T18:58:22.307Z,17.10
2023-05-29T19:01:01.936Z,17.01
2023-05-29T19:03:54.920Z,16.91
2023-05-29T19:06:29.915Z,16.79
2023-05-29T19:09:03.676Z,16.67
2023-05-29T19:11:38.442Z,16.57
2023-05-29T19:14:11.878Z,16.46
2023-05-29T19:16:47.435Z,16.29
2023-05-29T19:19:23.722Z,16.14
2023-05-29T19:22:01.580Z,16.02
2023-05-29T19:24:35.951Z,15.89
2023-05-29T19:27:17.774Z,15.76
2023-05-29T19:29:54.136Z,15.65
2023-05-29T19:32:28.380Z,15.53
2023-05-29T19:35:01.012Z,15.41
2023-05-29T19:37:38.993Z,15.32
2023-05-29T19:40:13.795Z,15.24
2023-05-29T19:42:48.834Z,15.17
2023-05-29T19:45:23.633Z,15.12
2023-05-29T19:48:05.039Z,15.06
2023-05-29T19:50:44.734Z,15.02
2023-05-29T19:53:19.694Z,15.00
2023-05-29T19:55:52.461Z,14.97
2023-05-29T19:58:26.063Z,14.87
2023-05-29T20:00:59.534Z,14.74
2023-05-29T20:03:35.307Z,14.59
2023-05-29T20:06:08.670Z,14.49
2023-05-29T20:08:43.765Z,14.42
2023-05-29T20:11:23.049Z,14.34
2023-05-29T20:14:01.404Z,14.26
2023-05-29T20:16:42.215Z,14.20
2023-05-29T20:19:24.160Z,14.11
2023-05-29T20:22:00.144Z,14.05
2023-05-29T20:24:33.015Z,13.99
2023-05-29T20:27:07.491Z,13.93
2023-05-29T20:29:39.757Z,13.84
2023-05-29T20:32:11.917Z,13.75
2023-05-29T20:34:52.822Z,13.67
2023-05-29T20:37:25.290Z,13.63
2023-05-29T20:39:57.274Z,13.61
2023-05-29T20:42:35.253Z,13.50
2023-05-29T20:45:08.858Z,13.43
2023-05-29T20:47:41.282Z,13.38
2023-05-29T20:50:16.887Z,13.28
2023-05-29T20:52:50.088Z,13.17
2023-05-29T20:55:23.307Z,13.12
2023-05-29T20:58:00.557Z,13.10
2023-05-29T21:00:34.429Z,13.08
2023-05-29T21:03:06.844Z,13.05
2023-05-29T21:05:41.725Z,13.03
2023-05-29T21:08:15.958Z,13.00
2023-05-29T21:10:47.745Z,12.96
2023-05-29T21:13:22.375Z,12.89
2023-05-29T21:15:55.200Z,12.81
2023-05-29T21:18:27.110Z,12.75
2023-05-29T21:20:59.114Z,12.72
2023-05-29T21:23:31.268Z,12.68
2023-05-29T21:26:04.467Z,12.65
2023-05-29T21:28:38.160Z,12.63
2023-05-29T21:31:10.161Z,12.61
2023-05-29T21:33:43.300Z,12.59
2023-05-29T21:36:14.921Z,12.50
2023-05-29T21:38:49.316Z,12.40
2023-05-29T21:41:21.219Z,12.32
2023-05-29T21:43:54.111Z,12.24
2023-05-29T21:46:25.805Z,12.18
2023-05-29T21:48:57.535Z,12.15
2023-05-29T21:51:31.244Z,12.14
2023-05-29T21:54:02.957Z,12.12
2023-05-29T21:56:34.566Z,12.07
2023-05-29T21:59:07.082Z,11.99
2023-05-29T22:01:39.068Z,11.92
2023-05-29T22:04:11.271Z,11.89
2023-05-29T22:06:44.033Z,11.84
2023-05-29T22:09:16.105Z,11.79
2023-05-29T22:11:49.362Z,11.73
2023-05-29T22:14:21.499Z,11.61
2023-05-29T22:16:54.910Z,11.50
2023-05-29T22:19:26.778Z,11.49
2023-05-29T22:21:58.350Z,11.52
2023-05-29T22:24:30.028Z,11.53
2023-05-29T22:27:01.846Z,11.46
2023-05-29T22:29:33.397Z,11.43
2023-05-29T22:32:05.824Z,11.45
2023-05-29T22:34:38.328Z,11.48
2023-05-29T22:37:10.345Z,11.52
2023-05-29T22:39:42.325Z,11.53
2023-05-29T22:42:14.267Z,11.52
2023-05-29T22:44:46.027Z,11.52
2023-05-29T22:47:19.085Z,11.52
2023-05-29T22:49:51.021Z,11.52
2023-05-29T22:52:22.891Z,11.49
2023-05-29T22:54:55.345Z,11.46
2023-05-29T22:57:26.978Z,11.43
2023-05-29T22:59:58.578Z,11.42
2023-05-29T23:02:30.700Z,11.44
2023-05-29T23:05:02.785Z,11.48
2023-05-29T23:07:34.902Z,11.50
2023-05-29T23:10:07.121Z,11.50
2023-05-29T23:12:38.984Z,11.52
2023-05-29T23:15:13.709Z,11.55
2023-05-29T23:17:45.678Z,11.58
2023-05-29T23:20:19.798Z,11.62
2023-05-29T23:22:51.558Z,11.66
2023-05-29T23:25:23.191Z,11.70
2023-05-29T23:27:54.825Z,11.71
2023-05-29T23:30:26.486Z,11.72
2023-05-29T23:32:58.120Z,11.72
2023-05-29T23:35:29.756Z,11.71
2023-05-29T23:38:02.039Z,11.71
2023-05-29T23:40:33.557Z,11.74
2023-05-29T23:43:05.215Z,11.77
2023-05-29T23:45:36.776Z,11.81
2023-05-29T23:48:07.088Z,11.82
2023-05-29T23:50:39.393Z,11.79
2023-05-29T23:53:11.569Z,11.83
2023-05-29T23:55:43.284Z,11.88
2023-05-29T23:58:14.838Z,11.93
